createdAt,value
2018-07-28T00:00:11.997Z,24.50
2018-07-28T00:03:09.187Z,24.51
2018-07-28T00:06:06.368Z,24.47
2018-07-28T00:09:03.579Z,24.40
2018-07-28T00:12:01.485Z,24.29
2018-07-28T00:14:59.468Z,24.27
2018-07-28T00:17:57.597Z,24.22
2018-07-28T00:20:54.644Z,24.14
2018-07-28T00:23:52.630Z,24.16
2018-07-28T00:26:49.596Z,24.15
2018-07-28T00:29:47.681Z,24.18
2018-07-28T00:32:45.580Z,24.11
2018-07-28T00:35:42.896Z,24.15
2018-07-28T00:38:40.795Z,24.12
2018-07-28T00:41:37.916Z,24.12
2018-07-28T00:44:35.877Z,24.15
2018-07-28T00:47:33.816Z,24.13
2018-07-28T00:50:31.799Z,24.01
2018-07-28T00:53:29.870Z,23.94
2018-07-28T00:56:27.701Z,23.59
2018-07-28T00:59:25.836Z,23.57
2018-07-28T01:02:23.676Z,23.63
2018-07-28T01:05:21.640Z,23.72
2018-07-28T01:08:19.698Z,23.70
2018-07-28T01:11:17.801Z,23.63
2018-07-28T01:14:15.897Z,23.34
2018-07-28T01:17:14.054Z,23.21
2018-07-28T01:20:11.220Z,23.23
2018-07-28T01:23:09.055Z,23.39
2018-07-28T01:26:07.112Z,23.47
2018-07-28T01:29:11.312Z,23.46
2018-07-28T01:32:09.268Z,23.49
2018-07-28T01:35:07.092Z,23.51
2018-07-28T01:38:05.269Z,23.50
2018-07-28T01:41:03.126Z,23.43
2018-07-28T01:44:01.003Z,23.46
2018-07-28T01:46:58.766Z,23.52
2018-07-28T01:49:56.778Z,23.52
2018-07-28T01:52:54.827Z,23.46
2018-07-28T01:55:52.658Z,23.47
2018-07-28T01:58:50.508Z,23.48
2018-07-28T02:01:49.448Z,23.51
2018-07-28T02:04:46.595Z,23.41
2018-07-28T02:07:44.435Z,23.38
2018-07-28T02:10:41.475Z,23.32
2018-07-28T02:13:39.428Z,23.26
2018-07-28T02:16:37.620Z,23.25
2018-07-28T02:19:35.584Z,23.16
2018-07-28T02:22:33.776Z,22.82
2018-07-28T02:25:32.020Z,22.78
2018-07-28T02:28:29.899Z,22.70
2018-07-28T02:31:26.981Z,22.83
2018-07-28T02:34:23.936Z,22.96
2018-07-28T02:37:21.886Z,22.95
2018-07-28T02:40:19.051Z,22.98
2018-07-28T02:43:17.223Z,22.98
2018-07-28T02:46:15.307Z,22.97
2018-07-28T02:49:13.257Z,22.94
2018-07-28T02:52:11.049Z,22.92
2018-07-28T02:55:08.843Z,22.82
2018-07-28T02:58:06.985Z,22.86
2018-07-28T03:01:05.006Z,22.83
2018-07-28T03:04:02.868Z,22.80
2018-07-28T03:07:00.784Z,22.77
2018-07-28T03:09:58.807Z,22.72
2018-07-28T03:12:56.767Z,22.75
2018-07-28T03:15:54.748Z,22.72
2018-07-28T03:18:52.916Z,22.68
2018-07-28T03:21:50.684Z,22.63
2018-07-28T03:24:47.767Z,22.59
2018-07-28T03:27:45.607Z,22.60
2018-07-28T03:30:42.570Z,22.54
2018-07-28T03:33:40.688Z,22.51
2018-07-28T03:36:38.634Z,22.45
2018-07-28T03:39:35.868Z,22.44
2018-07-28T03:42:32.949Z,22.41
2018-07-28T03:45:30.799Z,22.46
2018-07-28T03:48:27.978Z,22.45
2018-07-28T03:51:25.839Z,22.40
2018-07-28T03:54:22.880Z,22.39
2018-07-28T03:57:21.062Z,22.42
2018-07-28T04:00:21.096Z,22.53
2018-07-28T04:03:19.231Z,22.55
2018-07-28T04:06:16.518Z,22.55
2018-07-28T04:09:14.163Z,22.55
2018-07-28T04:12:11.318Z,22.63
2018-07-28T04:15:09.371Z,22.81
2018-07-28T04:18:07.323Z,23.00
2018-07-28T04:21:05.490Z,23.21
2018-07-28T04:24:03.543Z,23.42
2018-07-28T04:27:00.735Z,23.57
2018-07-28T04:29:58.860Z,23.67
2018-07-28T04:32:56.928Z,23.78
2018-07-28T04:35:54.869Z,23.63
2018-07-28T04:38:52.783Z,23.37
2018-07-28T04:41:50.531Z,23.39
2018-07-28T04:44:47.536Z,23.23
2018-07-28T04:47:44.780Z,23.10
2018-07-28T04:50:42.028Z,23.03
2018-07-28T04:53:42.952Z,23.04
2018-07-28T04:56:40.256Z,23.18
2018-07-28T04:59:37.483Z,23.84
2018-07-28T05:02:36.423Z,24.42
2018-07-28T05:05:34.452Z,24.83
2018-07-28T05:08:31.702Z,25.41
2018-07-28T05:11:29.683Z,25.62
2018-07-28T05:14:26.876Z,25.88
2018-07-28T05:17:24.618Z,26.20
2018-07-28T05:20:22.106Z,26.20
2018-07-28T05:23:19.522Z,26.16
2018-07-28T05:26:16.731Z,26.60
2018-07-28T05:29:13.803Z,26.88
2018-07-28T05:32:11.799Z,27.01
2018-07-28T05:35:09.703Z,27.29
2018-07-28T05:38:07.796Z,27.78
2018-07-28T05:41:05.824Z,28.19
2018-07-28T05:44:03.748Z,28.52
2018-07-28T05:47:01.311Z,29.55
2018-07-28T05:49:59.205Z,29.63
2018-07-28T05:52:56.479Z,30.45
2018-07-28T05:55:54.636Z,30.48
2018-07-28T05:58:52.559Z,30.57
2018-07-28T06:01:50.552Z,29.52
2018-07-28T06:04:48.669Z,28.38
2018-07-28T06:07:46.614Z,27.48
2018-07-28T06:10:43.868Z,27.32
2018-07-28T06:13:41.849Z,27.67
2018-07-28T06:16:39.641Z,27.89
2018-07-28T06:19:37.679Z,28.36
2018-07-28T06:22:35.627Z,28.11
2018-07-28T06:25:33.856Z,29.97
2018-07-28T06:28:31.378Z,30.71
2018-07-28T06:31:29.136Z,30.90
2018-07-28T06:34:26.680Z,31.40
2018-07-28T06:37:24.582Z,31.67
2018-07-28T06:40:22.636Z,31.55
2018-07-28T06:43:20.616Z,31.82
2018-07-28T06:46:17.616Z,32.23
2018-07-28T06:49:16.591Z,31.98
2018-07-28T06:52:13.680Z,32.44
2018-07-28T06:55:11.530Z,33.10
2018-07-28T06:58:09.379Z,33.50
2018-07-28T07:01:06.766Z,33.81
2018-07-28T07:04:03.984Z,33.23
2018-07-28T07:07:02.042Z,33.73
2018-07-28T07:10:00.230Z,33.44
2018-07-28T07:12:58.335Z,32.66
2018-07-28T07:15:55.478Z,33.81
2018-07-28T07:18:52.679Z,34.85
2018-07-28T07:21:50.863Z,35.18
2018-07-28T07:24:48.891Z,35.30
2018-07-28T07:27:46.718Z,34.74
2018-07-28T07:30:43.928Z,35.79
2018-07-28T07:33:41.045Z,35.86
2018-07-28T07:36:38.856Z,35.71
2018-07-28T07:39:36.471Z,36.06
2018-07-28T07:42:34.401Z,35.64
2018-07-28T07:45:32.702Z,35.28
2018-07-28T07:48:30.630Z,36.58
2018-07-28T07:51:28.658Z,37.14
2018-07-28T07:54:26.602Z,37.68
2018-07-28T07:57:24.494Z,37.89
2018-07-28T08:00:21.882Z,38.48
2018-07-28T08:03:19.683Z,37.10
2018-07-28T08:06:17.616Z,36.53
2018-07-28T08:09:14.839Z,36.71
2018-07-28T08:12:12.647Z,35.99
2018-07-28T08:15:09.955Z,36.36
2018-07-28T08:18:07.271Z,37.74
2018-07-28T08:21:04.654Z,37.54
2018-07-28T08:24:01.850Z,37.86
2018-07-28T08:26:59.222Z,37.87
2018-07-28T08:29:56.922Z,37.43
2018-07-28T08:32:54.120Z,38.03
2018-07-28T08:35:51.612Z,39.71
2018-07-28T08:38:49.276Z,39.07
2018-07-28T08:41:46.491Z,38.32
2018-07-28T08:44:44.192Z,37.05
2018-07-28T08:47:41.650Z,37.97
2018-07-28T09:10:18.999Z,39.35
2018-07-28T09:13:16.650Z,32.78
2018-07-28T09:16:14.577Z,32.39
2018-07-28T09:19:12.611Z,31.61
2018-07-28T09:22:09.840Z,31.69
2018-07-28T09:25:07.639Z,31.17
2018-07-28T09:28:05.531Z,30.99
2018-07-28T09:31:03.456Z,30.28
2018-07-28T09:34:00.560Z,30.54
2018-07-28T09:36:57.947Z,30.33
2018-07-28T09:39:55.238Z,29.99
2018-07-28T09:42:52.823Z,30.29
2018-07-28T09:45:49.946Z,30.91
2018-07-28T09:48:47.886Z,31.50
2018-07-28T09:51:45.495Z,32.24
2018-07-28T09:54:43.408Z,33.05
2018-07-28T09:57:41.043Z,32.82
2018-07-28T10:00:44.768Z,33.76
2018-07-28T10:03:42.823Z,34.28
2018-07-28T10:06:40.862Z,33.24
2018-07-28T10:09:38.313Z,33.32
2018-07-28T10:12:36.507Z,32.42
2018-07-28T10:15:33.811Z,32.66
2018-07-28T10:18:30.973Z,31.40
2018-07-28T10:21:28.756Z,31.25
2018-07-28T10:24:26.751Z,31.13
2018-07-28T10:27:24.263Z,31.34
2018-07-28T10:30:22.762Z,31.26
2018-07-28T10:33:20.628Z,31.32
2018-07-28T10:36:18.270Z,31.34
2018-07-28T10:39:15.332Z,30.83
2018-07-28T10:42:12.927Z,30.57
2018-07-28T10:45:10.499Z,30.48
2018-07-28T10:48:08.341Z,30.48
2018-07-28T10:51:05.552Z,30.50
2018-07-28T10:54:02.791Z,30.42
2018-07-28T10:57:00.340Z,30.45
2018-07-28T10:59:58.571Z,29.99
2018-07-28T11:02:56.680Z,29.59
2018-07-28T11:05:53.979Z,29.77
2018-07-28T11:08:51.452Z,29.39
2018-07-28T11:11:48.783Z,29.64
2018-07-28T11:14:45.826Z,29.96
2018-07-28T11:17:43.735Z,29.73
2018-07-28T11:20:40.864Z,30.05
2018-07-28T11:23:50.868Z,30.49
2018-07-28T11:26:48.596Z,30.44
2018-07-28T11:29:45.419Z,30.21
2018-07-28T11:32:55.498Z,30.04
2018-07-28T11:36:04.616Z,29.60
2018-07-28T11:39:14.156Z,29.14
2018-07-28T11:42:24.196Z,28.88
2018-07-28T11:45:27.498Z,29.73
2018-07-28T11:48:24.886Z,30.14
2018-07-28T11:51:22.681Z,30.09
2018-07-28T11:54:20.289Z,29.97
2018-07-28T11:57:18.005Z,30.11
2018-07-28T12:00:17.213Z,29.67
2018-07-28T12:03:14.341Z,29.48
2018-07-28T12:06:12.424Z,29.44
2018-07-28T12:09:09.879Z,29.52
2018-07-28T12:12:07.736Z,29.20
2018-07-28T12:15:05.417Z,28.83
2018-07-28T12:18:03.400Z,28.75
2018-07-28T12:21:00.596Z,28.46
2018-07-28T12:23:57.945Z,28.38
2018-07-28T12:26:55.985Z,28.73
2018-07-28T12:29:53.277Z,28.81
2018-07-28T12:32:50.376Z,28.84
2018-07-28T12:35:47.370Z,28.96
2018-07-28T12:38:45.315Z,29.03
2018-07-28T12:41:42.679Z,29.23
2018-07-28T12:44:40.708Z,29.24
2018-07-28T12:47:38.443Z,29.08
2018-07-28T12:50:36.416Z,29.78
2018-07-28T12:53:34.273Z,30.09
2018-07-28T12:56:31.776Z,30.08
2018-07-28T12:59:29.489Z,30.29
2018-07-28T13:02:26.721Z,30.90
2018-07-28T13:05:24.715Z,30.82
2018-07-28T13:08:22.107Z,30.05
2018-07-28T13:11:19.962Z,29.93
2018-07-28T13:14:17.515Z,29.39
2018-07-28T13:17:15.296Z,29.26
2018-07-28T13:20:13.008Z,28.98
2018-07-28T13:23:10.907Z,29.37
2018-07-28T13:26:08.439Z,29.87
2018-07-28T13:29:05.690Z,30.23
2018-07-28T13:32:02.911Z,30.06
2018-07-28T13:35:00.379Z,30.25
2018-07-28T13:37:58.478Z,30.03
2018-07-28T13:40:56.538Z,29.57
2018-07-28T13:43:54.607Z,29.60
2018-07-28T13:46:51.761Z,29.57
2018-07-28T13:49:49.058Z,29.76
2018-07-28T13:52:46.794Z,29.58
2018-07-28T13:55:44.027Z,29.49
2018-07-28T13:58:49.180Z,29.58
2018-07-28T14:01:47.297Z,28.79
2018-07-28T14:04:45.251Z,29.10
2018-07-28T14:07:43.305Z,29.06
2018-07-28T14:10:41.018Z,28.92
2018-07-28T14:13:38.019Z,29.23
2018-07-28T14:16:35.106Z,29.05
2018-07-28T14:19:32.880Z,29.54
2018-07-28T14:22:30.656Z,29.63
2018-07-28T14:25:27.931Z,29.74
2018-07-28T14:28:25.667Z,29.38
2018-07-28T14:31:23.646Z,29.50
2018-07-28T14:34:21.112Z,29.64
2018-07-28T14:37:18.171Z,29.48
2018-07-28T14:40:15.870Z,29.63
2018-07-28T14:43:13.680Z,29.36
2018-07-28T14:46:10.987Z,29.66
2018-07-28T14:49:08.268Z,29.62
2018-07-28T14:52:06.353Z,29.82
2018-07-28T14:55:05.819Z,29.81
2018-07-28T14:58:02.941Z,29.85
2018-07-28T15:01:00.239Z,29.70
2018-07-28T15:03:58.225Z,29.74
2018-07-28T15:06:55.966Z,29.56
2018-07-28T15:09:53.319Z,29.68
2018-07-28T15:12:51.282Z,29.34
2018-07-28T15:15:48.309Z,29.41
2018-07-28T15:18:45.449Z,29.65
2018-07-28T15:21:42.875Z,29.99
2018-07-28T15:24:40.371Z,30.13
2018-07-28T15:27:38.172Z,30.23
2018-07-28T15:30:35.812Z,30.38
2018-07-28T15:33:33.380Z,30.49
2018-07-28T15:36:30.983Z,30.25
2018-07-28T15:39:29.103Z,30.47
2018-07-28T15:42:26.307Z,30.64
2018-07-28T15:45:23.811Z,30.61
2018-07-28T15:48:21.247Z,30.51
2018-07-28T15:51:18.967Z,30.34
2018-07-28T15:54:16.852Z,30.13
2018-07-28T15:57:14.359Z,29.97
2018-07-28T16:00:11.365Z,29.68
2018-07-28T16:03:09.425Z,29.36
2018-07-28T16:06:07.447Z,29.18
2018-07-28T16:09:04.608Z,29.14
2018-07-28T16:12:02.538Z,29.18
2018-07-28T16:15:00.235Z,29.36
2018-07-28T16:17:57.914Z,29.20
2018-07-28T16:20:55.011Z,29.43
2018-07-28T16:23:52.928Z,29.17
2018-07-28T16:26:50.287Z,29.07
2018-07-28T16:29:48.051Z,29.17
2018-07-28T16:32:45.639Z,29.18
2018-07-28T16:35:42.874Z,29.33
2018-07-28T16:38:40.068Z,29.14
2018-07-28T16:41:37.727Z,29.06
2018-07-28T16:44:35.451Z,28.98
2018-07-28T16:47:33.150Z,28.83
2018-07-28T16:50:30.355Z,28.88
2018-07-28T16:53:27.555Z,28.89
2018-07-28T16:56:25.207Z,28.88
2018-07-28T16:59:23.088Z,28.55
2018-07-28T17:02:20.743Z,27.78
2018-07-28T17:05:17.947Z,26.63
2018-07-28T17:08:15.140Z,26.29
2018-07-28T17:11:12.256Z,26.01
2018-07-28T17:14:09.420Z,25.33
2018-07-28T17:17:06.622Z,24.91
2018-07-28T17:20:03.775Z,24.62
2018-07-28T17:23:01.035Z,24.21
2018-07-28T17:25:58.748Z,24.12
2018-07-28T17:28:56.567Z,24.22
2018-07-28T17:31:53.961Z,24.12
2018-07-28T17:34:52.061Z,23.78
2018-07-28T17:37:49.348Z,23.79
2018-07-28T17:40:46.713Z,23.79
2018-07-28T17:43:44.608Z,23.74
2018-07-28T17:46:42.886Z,23.68
2018-07-28T17:49:40.801Z,23.55
2018-07-28T17:52:38.912Z,23.40
2018-07-28T17:55:36.111Z,23.16
2018-07-28T17:58:34.312Z,23.04
2018-07-28T18:01:32.474Z,22.88
2018-07-28T18:04:29.619Z,22.75
2018-07-28T18:07:27.632Z,22.53
2018-07-28T18:10:25.652Z,22.54
2018-07-28T18:13:22.851Z,22.31
2018-07-28T18:16:20.912Z,22.28
2018-07-28T18:19:18.756Z,22.08
2018-07-28T18:22:16.109Z,21.87
2018-07-28T18:25:14.120Z,21.77
2018-07-28T18:28:11.816Z,21.61
2018-07-28T18:31:09.264Z,21.44
2018-07-28T18:34:06.906Z,21.14
2018-07-28T18:37:04.511Z,21.20
2018-07-28T18:40:02.605Z,21.15
2018-07-28T18:42:59.511Z,21.09
2018-07-28T18:45:57.168Z,21.15
2018-07-28T18:48:54.444Z,21.28
2018-07-28T18:51:52.218Z,21.16
2018-07-28T18:54:49.864Z,21.12
2018-07-28T18:57:47.956Z,21.32
2018-07-28T19:00:46.351Z,21.19
2018-07-28T19:03:43.594Z,21.23
2018-07-28T19:06:41.664Z,21.20
2018-07-28T19:09:44.891Z,21.28
2018-07-28T19:12:48.153Z,21.19
2018-07-28T19:15:46.279Z,21.12
2018-07-28T19:18:50.372Z,21.04
2018-07-28T19:21:47.611Z,20.90
2018-07-28T19:24:45.553Z,21.02
2018-07-28T19:27:43.697Z,21.12
2018-07-28T19:30:40.845Z,21.11
2018-07-28T19:33:38.013Z,20.93
2018-07-28T19:36:41.983Z,20.87
2018-07-28T19:39:39.980Z,20.91
2018-07-28T19:42:43.500Z,20.94
2018-07-28T19:45:41.047Z,21.16
2018-07-28T19:48:38.295Z,21.22
2018-07-28T19:51:35.777Z,21.04
2018-07-28T19:54:33.802Z,21.06
2018-07-28T19:57:31.761Z,20.98
2018-07-28T20:00:29.733Z,21.11
2018-07-28T20:03:26.973Z,21.09
2018-07-28T20:06:24.290Z,21.03
2018-07-28T20:09:22.350Z,20.78
2018-07-28T20:12:19.701Z,20.77
2018-07-28T20:15:17.759Z,20.73
2018-07-28T20:18:15.649Z,20.75
2018-07-28T20:21:12.903Z,20.71
2018-07-28T20:24:10.543Z,20.66
2018-07-28T20:27:08.379Z,20.76
2018-07-28T20:30:06.266Z,20.72
2018-07-28T20:33:04.367Z,20.79
2018-07-28T20:36:02.401Z,20.74
2018-07-28T20:39:00.584Z,20.75
2018-07-28T20:41:57.566Z,20.79
2018-07-28T20:44:54.712Z,20.77
2018-07-28T20:47:52.675Z,20.72
2018-07-28T20:50:50.039Z,20.66
2018-07-28T20:53:48.180Z,20.61
2018-07-28T20:56:46.026Z,20.51
2018-07-28T20:59:44.172Z,20.60
2018-07-28T21:02:41.680Z,20.60
2018-07-28T21:05:38.740Z,20.69
2018-07-28T21:08:35.910Z,20.67
2018-07-28T21:11:33.924Z,20.65
2018-07-28T21:14:31.354Z,20.43
2018-07-28T21:17:29.539Z,20.49
2018-07-28T21:20:27.485Z,20.40
2018-07-28T21:23:25.358Z,20.16
2018-07-28T21:26:22.460Z,20.14
2018-07-28T21:29:19.722Z,20.24
2018-07-28T21:32:17.460Z,20.27
2018-07-28T21:35:15.561Z,19.82
2018-07-28T21:38:12.703Z,19.84
2018-07-28T21:41:10.690Z,19.86
2018-07-28T21:44:08.783Z,19.78
2018-07-28T21:47:06.695Z,19.76
2018-07-28T21:50:04.699Z,19.58
2018-07-28T21:53:01.841Z,19.57
2018-07-28T21:55:59.100Z,19.44
2018-07-28T21:58:56.269Z,19.24
2018-07-28T22:01:53.623Z,19.23
2018-07-28T22:04:51.674Z,19.01
2018-07-28T22:07:49.790Z,19.08
2018-07-28T22:10:47.521Z,19.10
2018-07-28T22:13:45.340Z,19.05
2018-07-28T22:16:42.676Z,19.06
2018-07-28T22:19:40.788Z,19.03
2018-07-28T22:22:39.342Z,18.62
2018-07-28T22:25:36.708Z,18.60
2018-07-28T22:28:34.779Z,18.39
2018-07-28T22:31:32.048Z,18.38
2018-07-28T22:34:30.017Z,18.36
2018-07-28T22:37:28.007Z,18.22
2018-07-28T22:40:25.825Z,18.29
2018-07-28T22:43:23.990Z,18.23
2018-07-28T22:46:21.091Z,18.08
2018-07-28T22:49:19.143Z,17.91
2018-07-28T22:52:16.163Z,17.91
2018-07-28T22:55:13.352Z,18.04
2018-07-28T22:58:11.453Z,18.19
2018-07-28T23:01:09.546Z,18.09
2018-07-28T23:04:07.453Z,17.86
2018-07-28T23:07:04.743Z,18.02
2018-07-28T23:10:01.992Z,18.07
2018-07-28T23:12:59.608Z,17.94
2018-07-28T23:15:57.628Z,17.81
2018-07-28T23:18:55.624Z,18.00
2018-07-28T23:21:53.535Z,18.07
2018-07-28T23:24:51.619Z,18.17
2018-07-28T23:27:49.719Z,17.83
2018-07-28T23:30:47.720Z,17.93
2018-07-28T23:33:44.839Z,17.93
2018-07-28T23:36:41.922Z,17.99
2018-07-28T23:39:39.875Z,17.93
2018-07-28T23:42:37.740Z,17.72
2018-07-28T23:45:34.915Z,17.51
2018-07-28T23:48:32.712Z,17.51
2018-07-28T23:51:30.756Z,17.57
2018-07-28T23:54:28.726Z,17.48
2018-07-28T23:57:26.736Z,17.51
